WCOM7: Spring River, Waco, MO

Data processed at Fri Jun 05 2020 23:55


All information presented herein is the property of the government of the United States of America and may be revised or deleted at any time without prior notice.
Dissemination of this information without the expressed written consent of the Public Affairs Office, Tulsa District U.S. Army Corps of Engineers is strictly prohibited.
These data are gathered electronically and, as presented, have not undergone any form of quality control. These data are not guaranteed to be valid or correct.
Go to home page.
Go to station list.
Go to home page.

Upstream stations:

Downstream station:
Previous Day
Next Day
Current Day
    
SHEF ID:       WCOM7     Spring River near Waco, MO
STATION TYPE:  
Regulating: Stage =    19.00, Flow =    17743

               PRECIP     STAGE  RIV-FLOW  BAT-LOAD
                   in        ft       cfs      volt
              Ccp-Rev   Ccp-Rev   Ccp-Rev   Ccp-Rev
(US/Central)
06/05 00:00      0.00      9.06      6071     12.95
06/05 01:00      0.00      9.04      6051     12.95
06/05 02:00      0.00      8.95      5959     12.89
06/05 03:00      0.00      8.84      5846     12.89
06/05 04:00      0.00      8.67      5670     12.89
06/05 05:00      0.00      8.42      5412     12.89
06/05 06:00      0.00      8.26      5249     12.83
06/05 07:00      0.00      8.02      5008     12.83
06/05 08:00      0.00      7.84      4827     12.89
06/05 09:00      0.00      7.62      4608     13.24
06/05 10:00      0.00      7.47      4460     13.59
06/05 11:00      0.00      7.35      4343     13.83
06/05 12:00      0.00      7.17      4169     13.83
06/05 13:00      0.00      7.05      4051     13.77
06/05 14:00      0.00      6.97      3973     13.77
06/05 15:00      0.00      6.79      3798     13.71
06/05 16:00      0.00      6.66      3674     13.53
06/05 17:00      0.00      6.58      3598     13.42
06/05 18:00      0.00      6.45      3475     13.48
06/05 19:00      0.00      6.39      3419     13.36
06/05 20:00      0.00      6.22      3262     13.24
06/05 21:00      0.00      6.11      3160     13.00
06/05 22:00      0.00      5.98      3042     13.00
06/05 23:00      ----      ----      ----      ----